< < Back
Terminal Aerodrome Forecast


Current Version              Previous Versions:   1  2  3  4  5  6  7  8  9  

Terminal Aerodrome Forecast

473
FTUS42 KFFC 291557 AAB
TAFMCN
TAF AMD
KMCN 291557Z 2916/3012 34006KT P6SM SCT050
      TEMPO 2920/2923 VRB10G20KT 6SM -TSRA BKN040CB
     FM300000 08004KT P6SM SCT100 BKN250=

Latest METAR

894
SAUS80 KWBC 292200 RRB
MTRMCN
METAR KMCN 292153Z 12004KT 10SM CLR 31/23 A2991 RMK AO2 SLP123
T03060228


USA.gov is the U.S. government's official web portal to all federal, state and local government web resources and services.